sensor_id;sensor_type;location;lat;lon;timestamp;P1;durP1;ratioP1;P2;durP2;ratioP2
16510;SDS011;8368;48.772;8.754;2023-11-19T00:00:19;1.63;;;0.37;;
16510;SDS011;8368;48.772;8.754;2023-11-19T00:02:45;0.47;;;0.47;;
16510;SDS011;8368;48.772;8.754;2023-11-19T00:05:12;0.40;;;0.40;;
16510;SDS011;8368;48.772;8.754;2023-11-19T00:07:38;0.40;;;0.40;;
16510;SDS011;8368;48.772;8.754;2023-11-19T00:10:11;2.20;;;0.67;;
16510;SDS011;8368;48.772;8.754;2023-11-19T00:12:38;0.30;;;0.30;;
16510;SDS011;8368;48.772;8.754;2023-11-19T00:15:09;0.30;;;0.30;;
16510;SDS011;8368;48.772;8.754;2023-11-19T00:17:37;0.73;;;0.40;;
16510;SDS011;8368;48.772;8.754;2023-11-19T00:20:05;0.43;;;0.43;;
16510;SDS011;8368;48.772;8.754;2023-11-19T00:22:31;0.50;;;0.40;;
16510;SDS011;8368;48.772;8.754;2023-11-19T00:24:57;0.30;;;0.30;;
16510;SDS011;8368;48.772;8.754;2023-11-19T00:27:24;0.30;;;0.30;;
16510;SDS011;8368;48.772;8.754;2023-11-19T00:29:50;0.27;;;0.27;;
16510;SDS011;8368;48.772;8.754;2023-11-19T00:32:15;0.20;;;0.20;;
16510;SDS011;8368;48.772;8.754;2023-11-19T00:34:43;0.77;;;0.20;;
16510;SDS011;8368;48.772;8.754;2023-11-19T00:37:09;0.30;;;0.30;;
16510;SDS011;8368;48.772;8.754;2023-11-19T00:39:34;0.50;;;0.50;;
16510;SDS011;8368;48.772;8.754;2023-11-19T00:42:00;0.47;;;0.47;;
16510;SDS011;8368;48.772;8.754;2023-11-19T00:44:26;0.67;;;0.60;;
16510;SDS011;8368;48.772;8.754;2023-11-19T00:46:51;0.37;;;0.30;;
16510;SDS011;8368;48.772;8.754;2023-11-19T00:49:17;0.37;;;0.37;;
16510;SDS011;8368;48.772;8.754;2023-11-19T00:51:42;2.43;;;0.50;;
16510;SDS011;8368;48.772;8.754;2023-11-19T00:54:08;0.30;;;0.30;;
16510;SDS011;8368;48.772;8.754;2023-11-19T00:56:33;0.23;;;0.23;;
16510;SDS011;8368;48.772;8.754;2023-11-19T00:58:59;0.20;;;0.20;;
16510;SDS011;8368;48.772;8.754;2023-11-19T01:01:25;0.13;;;0.13;;
16510;SDS011;8368;48.772;8.754;2023-11-19T01:03:51;0.40;;;0.40;;
16510;SDS011;8368;48.772;8.754;2023-11-19T01:06:26;0.20;;;0.20;;
16510;SDS011;8368;48.772;8.754;2023-11-19T01:08:52;0.17;;;0.17;;
16510;SDS011;8368;48.772;8.754;2023-11-19T01:11:21;0.23;;;0.23;;
16510;SDS011;8368;48.772;8.754;2023-11-19T01:13:46;0.20;;;0.20;;
16510;SDS011;8368;48.772;8.754;2023-11-19T01:16:12;0.27;;;0.27;;
16510;SDS011;8368;48.772;8.754;2023-11-19T01:18:38;0.50;;;0.17;;
16510;SDS011;8368;48.772;8.754;2023-11-19T01:21:04;0.20;;;0.20;;
16510;SDS011;8368;48.772;8.754;2023-11-19T01:23:30;0.10;;;0.10;;
16510;SDS011;8368;48.772;8.754;2023-11-19T01:25:56;0.10;;;0.10;;
16510;SDS011;8368;48.772;8.754;2023-11-19T01:28:21;0.33;;;0.20;;
16510;SDS011;8368;48.772;8.754;2023-11-19T01:30:46;0.67;;;0.20;;
16510;SDS011;8368;48.772;8.754;2023-11-19T01:33:16;0.33;;;0.30;;
16510;SDS011;8368;48.772;8.754;2023-11-19T01:35:42;0.30;;;0.30;;
16510;SDS011;8368;48.772;8.754;2023-11-19T01:38:07;0.33;;;0.27;;
16510;SDS011;8368;48.772;8.754;2023-11-19T01:40:33;0.10;;;0.10;;
16510;SDS011;8368;48.772;8.754;2023-11-19T01:43:01;0.10;;;0.10;;
16510;SDS011;8368;48.772;8.754;2023-11-19T01:45:28;0.83;;;0.40;;
16510;SDS011;8368;48.772;8.754;2023-11-19T01:47:55;0.20;;;0.17;;
16510;SDS011;8368;48.772;8.754;2023-11-19T01:50:22;0.30;;;0.30;;
16510;SDS011;8368;48.772;8.754;2023-11-19T01:52:49;0.13;;;0.13;;
16510;SDS011;8368;48.772;8.754;2023-11-19T01:55:17;0.10;;;0.10;;
16510;SDS011;8368;48.772;8.754;2023-11-19T01:57:43;0.10;;;0.10;;
16510;SDS011;8368;48.772;8.754;2023-11-19T02:00:09;0.10;;;0.10;;
16510;SDS011;8368;48.772;8.754;2023-11-19T02:02:39;0.17;;;0.17;;
16510;SDS011;8368;48.772;8.754;2023-11-19T02:05:05;0.10;;;0.10;;
16510;SDS011;8368;48.772;8.754;2023-11-19T02:07:32;0.10;;;0.10;;
16510;SDS011;8368;48.772;8.754;2023-11-19T02:09:57;0.20;;;0.10;;
16510;SDS011;8368;48.772;8.754;2023-11-19T02:12:30;0.10;;;0.10;;
16510;SDS011;8368;48.772;8.754;2023-11-19T02:14:58;0.17;;;0.17;;
16510;SDS011;8368;48.772;8.754;2023-11-19T02:17:28;0.20;;;0.20;;
16510;SDS011;8368;48.772;8.754;2023-11-19T02:19:56;0.10;;;0.10;;
16510;SDS011;8368;48.772;8.754;2023-11-19T02:22:22;0.10;;;0.10;;
16510;SDS011;8368;48.772;8.754;2023-11-19T02:24:48;0.10;;;0.10;;
16510;SDS011;8368;48.772;8.754;2023-11-19T02:27:19;0.00;;;0.00;;
16510;SDS011;8368;48.772;8.754;2023-11-19T02:29:54;0.03;;;0.03;;
16510;SDS011;8368;48.772;8.754;2023-11-19T02:32:19;0.93;;;0.20;;
16510;SDS011;8368;48.772;8.754;2023-11-19T02:34:45;0.20;;;0.20;;
16510;SDS011;8368;48.772;8.754;2023-11-19T02:37:10;0.10;;;0.10;;
16510;SDS011;8368;48.772;8.754;2023-11-19T02:39:36;0.20;;;0.20;;
16510;SDS011;8368;48.772;8.754;2023-11-19T02:42:02;0.23;;;0.23;;
16510;SDS011;8368;48.772;8.754;2023-11-19T02:44:27;0.10;;;0.10;;
16510;SDS011;8368;48.772;8.754;2023-11-19T02:46:55;0.10;;;0.10;;
16510;SDS011;8368;48.772;8.754;2023-11-19T02:49:24;0.17;;;0.17;;
16510;SDS011;8368;48.772;8.754;2023-11-19T02:51:50;0.10;;;0.10;;
16510;SDS011;8368;48.772;8.754;2023-11-19T02:54:15;0.00;;;0.00;;
16510;SDS011;8368;48.772;8.754;2023-11-19T02:56:44;0.17;;;0.10;;
16510;SDS011;8368;48.772;8.754;2023-11-19T02:59:12;0.00;;;0.00;;
16510;SDS011;8368;48.772;8.754;2023-11-19T03:01:52;0.00;;;0.00;;
16510;SDS011;8368;48.772;8.754;2023-11-19T03:04:18;0.10;;;0.10;;
16510;SDS011;8368;48.772;8.754;2023-11-19T03:06:45;0.10;;;0.10;;
16510;SDS011;8368;48.772;8.754;2023-11-19T03:09:10;0.20;;;0.20;;
16510;SDS011;8368;48.772;8.754;2023-11-19T03:11:36;0.00;;;0.00;;
16510;SDS011;8368;48.772;8.754;2023-11-19T03:14:02;0.10;;;0.10;;
16510;SDS011;8368;48.772;8.754;2023-11-19T03:16:30;0.10;;;0.10;;
16510;SDS011;8368;48.772;8.754;2023-11-19T03:18:56;0.10;;;0.10;;
16510;SDS011;8368;48.772;8.754;2023-11-19T03:21:30;0.10;;;0.10;;
16510;SDS011;8368;48.772;8.754;2023-11-19T03:23:57;0.40;;;0.20;;
16510;SDS011;8368;48.772;8.754;2023-11-19T03:26:25;0.07;;;0.07;;
16510;SDS011;8368;48.772;8.754;2023-11-19T03:28:51;0.83;;;0.20;;
16510;SDS011;8368;48.772;8.754;2023-11-19T03:31:17;0.10;;;0.10;;
16510;SDS011;8368;48.772;8.754;2023-11-19T03:33:42;0.10;;;0.10;;
16510;SDS011;8368;48.772;8.754;2023-11-19T03:36:08;0.10;;;0.10;;
16510;SDS011;8368;48.772;8.754;2023-11-19T03:38:34;0.10;;;0.10;;
16510;SDS011;8368;48.772;8.754;2023-11-19T03:40:59;0.10;;;0.10;;
16510;SDS011;8368;48.772;8.754;2023-11-19T03:43:25;0.93;;;0.10;;
16510;SDS011;8368;48.772;8.754;2023-11-19T03:45:50;0.27;;;0.20;;
16510;SDS011;8368;48.772;8.754;2023-11-19T03:48:16;0.10;;;0.10;;
16510;SDS011;8368;48.772;8.754;2023-11-19T03:50:42;0.10;;;0.10;;
16510;SDS011;8368;48.772;8.754;2023-11-19T03:53:07;0.10;;;0.10;;
16510;SDS011;8368;48.772;8.754;2023-11-19T03:55:33;0.10;;;0.10;;
16510;SDS011;8368;48.772;8.754;2023-11-19T03:57:58;0.10;;;0.10;;
16510;SDS011;8368;48.772;8.754;2023-11-19T04:00:24;0.10;;;0.10;;
16510;SDS011;8368;48.772;8.754;2023-11-19T04:02:49;0.10;;;0.10;;
16510;SDS011;8368;48.772;8.754;2023-11-19T04:05:15;0.10;;;0.10;;
16510;SDS011;8368;48.772;8.754;2023-11-19T04:07:41;0.17;;;0.17;;
16510;SDS011;8368;48.772;8.754;2023-11-19T04:10:06;0.20;;;0.20;;
16510;SDS011;8368;48.772;8.754;2023-11-19T04:12:32;0.23;;;0.23;;
16510;SDS011;8368;48.772;8.754;2023-11-19T04:14:57;0.10;;;0.10;;
16510;SDS011;8368;48.772;8.754;2023-11-19T04:17:23;0.10;;;0.10;;
16510;SDS011;8368;48.772;8.754;2023-11-19T04:19:49;0.23;;;0.23;;
16510;SDS011;8368;48.772;8.754;2023-11-19T04:22:14;0.30;;;0.30;;
16510;SDS011;8368;48.772;8.754;2023-11-19T04:24:40;0.60;;;0.20;;
16510;SDS011;8368;48.772;8.754;2023-11-19T04:27:06;0.27;;;0.27;;
16510;SDS011;8368;48.772;8.754;2023-11-19T04:29:31;0.20;;;0.20;;
16510;SDS011;8368;48.772;8.754;2023-11-19T04:31:57;0.20;;;0.20;;
16510;SDS011;8368;48.772;8.754;2023-11-19T04:34:24;0.20;;;0.20;;
16510;SDS011;8368;48.772;8.754;2023-11-19T04:36:49;0.17;;;0.17;;
16510;SDS011;8368;48.772;8.754;2023-11-19T04:39:15;0.67;;;0.10;;
16510;SDS011;8368;48.772;8.754;2023-11-19T04:41:50;0.20;;;0.20;;
16510;SDS011;8368;48.772;8.754;2023-11-19T04:44:19;0.20;;;0.20;;
16510;SDS011;8368;48.772;8.754;2023-11-19T04:46:45;0.20;;;0.20;;
16510;SDS011;8368;48.772;8.754;2023-11-19T04:49:11;0.30;;;0.30;;
16510;SDS011;8368;48.772;8.754;2023-11-19T04:51:38;0.30;;;0.30;;
16510;SDS011;8368;48.772;8.754;2023-11-19T04:54:05;0.30;;;0.30;;
16510;SDS011;8368;48.772;8.754;2023-11-19T04:56:31;0.20;;;0.20;;
16510;SDS011;8368;48.772;8.754;2023-11-19T04:58:57;0.20;;;0.20;;
16510;SDS011;8368;48.772;8.754;2023-11-19T05:01:22;0.27;;;0.27;;
16510;SDS011;8368;48.772;8.754;2023-11-19T05:03:48;0.27;;;0.27;;
16510;SDS011;8368;48.772;8.754;2023-11-19T05:06:13;0.13;;;0.13;;
16510;SDS011;8368;48.772;8.754;2023-11-19T05:08:40;0.30;;;0.30;;
16510;SDS011;8368;48.772;8.754;2023-11-19T05:11:05;0.30;;;0.30;;
16510;SDS011;8368;48.772;8.754;2023-11-19T05:13:31;0.30;;;0.30;;
16510;SDS011;8368;48.772;8.754;2023-11-19T05:15:57;0.40;;;0.40;;
16510;SDS011;8368;48.772;8.754;2023-11-19T05:18:22;0.33;;;0.33;;
16510;SDS011;8368;48.772;8.754;2023-11-19T05:20:48;1.03;;;0.50;;
16510;SDS011;8368;48.772;8.754;2023-11-19T05:23:14;0.40;;;0.40;;
16510;SDS011;8368;48.772;8.754;2023-11-19T05:25:39;1.03;;;0.50;;
16510;SDS011;8368;48.772;8.754;2023-11-19T05:28:05;0.50;;;0.50;;
16510;SDS011;8368;48.772;8.754;2023-11-19T05:30:30;0.60;;;0.60;;
16510;SDS011;8368;48.772;8.754;2023-11-19T05:32:56;0.50;;;0.50;;
16510;SDS011;8368;48.772;8.754;2023-11-19T05:35:21;0.67;;;0.60;;
16510;SDS011;8368;48.772;8.754;2023-11-19T05:37:47;1.53;;;0.67;;
16510;SDS011;8368;48.772;8.754;2023-11-19T05:40:12;0.50;;;0.50;;
16510;SDS011;8368;48.772;8.754;2023-11-19T05:42:42;0.60;;;0.60;;
16510;SDS011;8368;48.772;8.754;2023-11-19T05:45:10;0.60;;;0.60;;
16510;SDS011;8368;48.772;8.754;2023-11-19T05:47:37;0.93;;;0.50;;
16510;SDS011;8368;48.772;8.754;2023-11-19T05:50:02;0.83;;;0.60;;
16510;SDS011;8368;48.772;8.754;2023-11-19T05:52:30;0.60;;;0.60;;
16510;SDS011;8368;48.772;8.754;2023-11-19T05:54:59;0.60;;;0.60;;
16510;SDS011;8368;48.772;8.754;2023-11-19T05:57:32;2.03;;;0.60;;
16510;SDS011;8368;48.772;8.754;2023-11-19T05:59:59;0.57;;;0.57;;
16510;SDS011;8368;48.772;8.754;2023-11-19T06:02:25;0.60;;;0.60;;
16510;SDS011;8368;48.772;8.754;2023-11-19T06:04:52;0.60;;;0.60;;
16510;SDS011;8368;48.772;8.754;2023-11-19T06:07:18;1.10;;;0.67;;
16510;SDS011;8368;48.772;8.754;2023-11-19T06:09:44;0.40;;;0.40;;
16510;SDS011;8368;48.772;8.754;2023-11-19T06:12:10;0.40;;;0.40;;
16510;SDS011;8368;48.772;8.754;2023-11-19T06:14:35;0.40;;;0.40;;
16510;SDS011;8368;48.772;8.754;2023-11-19T06:17:01;0.40;;;0.40;;
16510;SDS011;8368;48.772;8.754;2023-11-19T06:19:26;0.30;;;0.30;;
16510;SDS011;8368;48.772;8.754;2023-11-19T06:21:53;0.30;;;0.30;;
16510;SDS011;8368;48.772;8.754;2023-11-19T06:24:18;0.40;;;0.40;;
16510;SDS011;8368;48.772;8.754;2023-11-19T06:26:44;0.60;;;0.50;;
16510;SDS011;8368;48.772;8.754;2023-11-19T06:29:09;0.53;;;0.43;;
16510;SDS011;8368;48.772;8.754;2023-11-19T06:31:35;0.30;;;0.30;;
16510;SDS011;8368;48.772;8.754;2023-11-19T06:34:01;1.80;;;1.37;;
16510;SDS011;8368;48.772;8.754;2023-11-19T06:36:27;0.73;;;0.73;;
16510;SDS011;8368;48.772;8.754;2023-11-19T06:38:52;0.80;;;0.30;;
16510;SDS011;8368;48.772;8.754;2023-11-19T06:41:18;0.60;;;0.60;;
16510;SDS011;8368;48.772;8.754;2023-11-19T06:43:43;0.60;;;0.40;;
16510;SDS011;8368;48.772;8.754;2023-11-19T06:46:16;0.23;;;0.23;;
16510;SDS011;8368;48.772;8.754;2023-11-19T06:48:42;0.47;;;0.47;;
16510;SDS011;8368;48.772;8.754;2023-11-19T06:51:09;0.60;;;0.60;;
16510;SDS011;8368;48.772;8.754;2023-11-19T06:53:34;3.97;;;3.20;;
16510;SDS011;8368;48.772;8.754;2023-11-19T06:56:01;10.47;;;6.67;;
16510;SDS011;8368;48.772;8.754;2023-11-19T06:58:30;3.87;;;3.67;;
16510;SDS011;8368;48.772;8.754;2023-11-19T07:00:56;0.90;;;0.83;;
16510;SDS011;8368;48.772;8.754;2023-11-19T07:03:21;0.83;;;0.50;;
16510;SDS011;8368;48.772;8.754;2023-11-19T07:05:47;0.87;;;0.60;;
16510;SDS011;8368;48.772;8.754;2023-11-19T07:08:13;0.50;;;0.50;;
16510;SDS011;8368;48.772;8.754;2023-11-19T07:10:39;0.50;;;0.47;;
16510;SDS011;8368;48.772;8.754;2023-11-19T07:13:04;0.80;;;0.80;;
16510;SDS011;8368;48.772;8.754;2023-11-19T07:15:30;1.67;;;0.60;;
16510;SDS011;8368;48.772;8.754;2023-11-19T07:17:57;0.70;;;0.70;;
16510;SDS011;8368;48.772;8.754;2023-11-19T07:20:24;0.60;;;0.60;;
16510;SDS011;8368;48.772;8.754;2023-11-19T07:22:51;1.17;;;0.80;;
16510;SDS011;8368;48.772;8.754;2023-11-19T07:25:17;0.77;;;0.77;;
16510;SDS011;8368;48.772;8.754;2023-11-19T07:27:42;0.70;;;0.70;;
16510;SDS011;8368;48.772;8.754;2023-11-19T07:30:08;1.00;;;1.00;;
16510;SDS011;8368;48.772;8.754;2023-11-19T07:32:34;0.90;;;0.90;;
16510;SDS011;8368;48.772;8.754;2023-11-19T07:34:59;0.80;;;0.80;;
16510;SDS011;8368;48.772;8.754;2023-11-19T07:37:25;1.17;;;1.07;;
16510;SDS011;8368;48.772;8.754;2023-11-19T07:39:51;1.07;;;1.07;;
16510;SDS011;8368;48.772;8.754;2023-11-19T07:42:16;1.70;;;1.60;;
16510;SDS011;8368;48.772;8.754;2023-11-19T07:44:43;1.37;;;1.30;;
16510;SDS011;8368;48.772;8.754;2023-11-19T07:47:09;1.70;;;1.23;;
16510;SDS011;8368;48.772;8.754;2023-11-19T07:49:35;1.40;;;1.30;;
16510;SDS011;8368;48.772;8.754;2023-11-19T07:52:00;1.97;;;1.87;;
16510;SDS011;8368;48.772;8.754;2023-11-19T07:54:27;1.80;;;1.70;;
16510;SDS011;8368;48.772;8.754;2023-11-19T07:56:53;1.70;;;1.60;;
16510;SDS011;8368;48.772;8.754;2023-11-19T07:59:19;1.03;;;1.03;;
16510;SDS011;8368;48.772;8.754;2023-11-19T08:01:45;1.80;;;1.70;;
16510;SDS011;8368;48.772;8.754;2023-11-19T08:04:10;3.60;;;2.30;;
16510;SDS011;8368;48.772;8.754;2023-11-19T08:06:36;1.90;;;1.50;;
16510;SDS011;8368;48.772;8.754;2023-11-19T08:09:01;1.37;;;1.37;;
16510;SDS011;8368;48.772;8.754;2023-11-19T08:11:27;1.17;;;1.17;;
16510;SDS011;8368;48.772;8.754;2023-11-19T08:13:52;2.57;;;1.40;;
16510;SDS011;8368;48.772;8.754;2023-11-19T08:16:18;0.77;;;0.77;;
16510;SDS011;8368;48.772;8.754;2023-11-19T08:18:44;0.90;;;0.90;;
16510;SDS011;8368;48.772;8.754;2023-11-19T08:21:09;0.60;;;0.60;;
16510;SDS011;8368;48.772;8.754;2023-11-19T08:23:35;2.40;;;0.77;;
16510;SDS011;8368;48.772;8.754;2023-11-19T08:26:01;1.30;;;0.70;;
16510;SDS011;8368;48.772;8.754;2023-11-19T08:28:27;0.50;;;0.50;;
16510;SDS011;8368;48.772;8.754;2023-11-19T08:30:52;0.60;;;0.60;;
16510;SDS011;8368;48.772;8.754;2023-11-19T08:33:18;0.60;;;0.60;;
16510;SDS011;8368;48.772;8.754;2023-11-19T08:35:44;1.70;;;0.97;;
16510;SDS011;8368;48.772;8.754;2023-11-19T08:38:10;1.57;;;0.50;;
16510;SDS011;8368;48.772;8.754;2023-11-19T08:40:36;0.40;;;0.40;;
16510;SDS011;8368;48.772;8.754;2023-11-19T08:43:02;0.57;;;0.57;;
16510;SDS011;8368;48.772;8.754;2023-11-19T08:45:27;1.27;;;1.17;;
16510;SDS011;8368;48.772;8.754;2023-11-19T08:47:53;1.47;;;1.37;;
16510;SDS011;8368;48.772;8.754;2023-11-19T08:50:18;3.03;;;1.20;;
16510;SDS011;8368;48.772;8.754;2023-11-19T08:52:44;0.60;;;0.60;;
16510;SDS011;8368;48.772;8.754;2023-11-19T08:55:09;0.60;;;0.50;;
16510;SDS011;8368;48.772;8.754;2023-11-19T08:57:36;2.10;;;0.80;;
16510;SDS011;8368;48.772;8.754;2023-11-19T09:00:02;0.70;;;0.50;;
16510;SDS011;8368;48.772;8.754;2023-11-19T09:02:32;2.47;;;0.50;;
16510;SDS011;8368;48.772;8.754;2023-11-19T09:04:58;0.60;;;0.60;;
16510;SDS011;8368;48.772;8.754;2023-11-19T09:07:24;0.50;;;0.50;;
16510;SDS011;8368;48.772;8.754;2023-11-19T09:09:49;1.23;;;0.60;;
16510;SDS011;8368;48.772;8.754;2023-11-19T09:12:15;0.40;;;0.40;;
16510;SDS011;8368;48.772;8.754;2023-11-19T09:14:40;0.73;;;0.60;;
16510;SDS011;8368;48.772;8.754;2023-11-19T09:17:07;0.80;;;0.77;;
16510;SDS011;8368;48.772;8.754;2023-11-19T09:19:33;1.00;;;0.60;;
16510;SDS011;8368;48.772;8.754;2023-11-19T09:22:00;0.40;;;0.40;;
16510;SDS011;8368;48.772;8.754;2023-11-19T09:24:26;0.67;;;0.40;;
16510;SDS011;8368;48.772;8.754;2023-11-19T09:26:51;1.67;;;0.57;;
16510;SDS011;8368;48.772;8.754;2023-11-19T09:29:17;0.50;;;0.50;;
16510;SDS011;8368;48.772;8.754;2023-11-19T09:31:43;0.37;;;0.37;;
16510;SDS011;8368;48.772;8.754;2023-11-19T09:34:08;0.57;;;0.57;;
16510;SDS011;8368;48.772;8.754;2023-11-19T09:36:34;0.73;;;0.40;;
16510;SDS011;8368;48.772;8.754;2023-11-19T09:38:59;0.33;;;0.33;;
16510;SDS011;8368;48.772;8.754;2023-11-19T09:41:26;0.90;;;0.90;;
16510;SDS011;8368;48.772;8.754;2023-11-19T09:43:53;0.87;;;0.67;;
16510;SDS011;8368;48.772;8.754;2023-11-19T09:46:18;0.70;;;0.50;;
16510;SDS011;8368;48.772;8.754;2023-11-19T09:48:45;0.40;;;0.40;;
16510;SDS011;8368;48.772;8.754;2023-11-19T09:51:13;1.70;;;0.50;;
16510;SDS011;8368;48.772;8.754;2023-11-19T09:53:39;0.73;;;0.60;;
16510;SDS011;8368;48.772;8.754;2023-11-19T09:56:05;0.40;;;0.40;;
16510;SDS011;8368;48.772;8.754;2023-11-19T09:58:32;1.60;;;0.83;;
16510;SDS011;8368;48.772;8.754;2023-11-19T10:00:59;0.93;;;0.40;;
16510;SDS011;8368;48.772;8.754;2023-11-19T10:03:32;1.30;;;0.70;;
16510;SDS011;8368;48.772;8.754;2023-11-19T10:06:00;0.53;;;0.40;;
16510;SDS011;8368;48.772;8.754;2023-11-19T10:08:26;0.93;;;0.50;;
16510;SDS011;8368;48.772;8.754;2023-11-19T10:10:51;0.40;;;0.40;;
16510;SDS011;8368;48.772;8.754;2023-11-19T10:13:17;1.13;;;0.50;;
16510;SDS011;8368;48.772;8.754;2023-11-19T10:15:43;0.40;;;0.40;;
16510;SDS011;8368;48.772;8.754;2023-11-19T10:18:09;1.33;;;0.50;;
16510;SDS011;8368;48.772;8.754;2023-11-19T10:20:35;0.30;;;0.30;;
16510;SDS011;8368;48.772;8.754;2023-11-19T10:23:02;0.43;;;0.33;;
16510;SDS011;8368;48.772;8.754;2023-11-19T10:25:28;0.43;;;0.43;;
16510;SDS011;8368;48.772;8.754;2023-11-19T10:27:55;0.53;;;0.53;;
16510;SDS011;8368;48.772;8.754;2023-11-19T10:30:22;0.77;;;0.77;;
16510;SDS011;8368;48.772;8.754;2023-11-19T10:35:31;1.70;;;0.47;;
16510;SDS011;8368;48.772;8.754;2023-11-19T10:38:01;0.60;;;0.60;;
16510;SDS011;8368;48.772;8.754;2023-11-19T10:40:40;0.77;;;0.73;;
16510;SDS011;8368;48.772;8.754;2023-11-19T10:43:06;0.50;;;0.50;;
16510;SDS011;8368;48.772;8.754;2023-11-19T10:45:35;0.77;;;0.40;;
16510;SDS011;8368;48.772;8.754;2023-11-19T10:48:02;2.10;;;0.50;;
16510;SDS011;8368;48.772;8.754;2023-11-19T10:50:35;1.13;;;0.50;;
16510;SDS011;8368;48.772;8.754;2023-11-19T10:53:01;0.50;;;0.50;;
16510;SDS011;8368;48.772;8.754;2023-11-19T10:55:32;1.27;;;0.50;;
16510;SDS011;8368;48.772;8.754;2023-11-19T10:58:00;0.40;;;0.40;;
16510;SDS011;8368;48.772;8.754;2023-11-19T11:00:39;0.40;;;0.40;;
16510;SDS011;8368;48.772;8.754;2023-11-19T11:03:29;0.40;;;0.40;;
16510;SDS011;8368;48.772;8.754;2023-11-19T11:06:04;1.03;;;0.50;;
16510;SDS011;8368;48.772;8.754;2023-11-19T11:08:30;0.40;;;0.40;;
16510;SDS011;8368;48.772;8.754;2023-11-19T11:10:56;2.37;;;0.87;;
16510;SDS011;8368;48.772;8.754;2023-11-19T11:13:23;0.40;;;0.40;;
16510;SDS011;8368;48.772;8.754;2023-11-19T11:15:50;0.30;;;0.30;;
16510;SDS011;8368;48.772;8.754;2023-11-19T11:18:16;0.50;;;0.50;;
16510;SDS011;8368;48.772;8.754;2023-11-19T11:20:44;0.60;;;0.60;;
16510;SDS011;8368;48.772;8.754;2023-11-19T11:23:16;1.97;;;0.60;;
16510;SDS011;8368;48.772;8.754;2023-11-19T11:28:42;1.40;;;0.70;;
16510;SDS011;8368;48.772;8.754;2023-11-19T11:34:51;0.60;;;0.60;;
16510;SDS011;8368;48.772;8.754;2023-11-19T11:37:39;1.23;;;0.50;;
16510;SDS011;8368;48.772;8.754;2023-11-19T11:40:16;0.40;;;0.40;;
16510;SDS011;8368;48.772;8.754;2023-11-19T11:42:43;0.70;;;0.70;;
16510;SDS011;8368;48.772;8.754;2023-11-19T11:45:12;0.40;;;0.40;;
16510;SDS011;8368;48.772;8.754;2023-11-19T11:50:08;1.57;;;0.80;;
16510;SDS011;8368;48.772;8.754;2023-11-19T11:52:41;1.00;;;0.53;;
16510;SDS011;8368;48.772;8.754;2023-11-19T11:57:59;0.33;;;0.30;;
16510;SDS011;8368;48.772;8.754;2023-11-19T12:00:38;0.87;;;0.73;;
16510;SDS011;8368;48.772;8.754;2023-11-19T12:03:06;0.43;;;0.43;;
16510;SDS011;8368;48.772;8.754;2023-11-19T12:05:33;0.40;;;0.40;;
16510;SDS011;8368;48.772;8.754;2023-11-19T12:08:10;1.33;;;0.50;;
16510;SDS011;8368;48.772;8.754;2023-11-19T12:10:44;2.43;;;0.60;;
16510;SDS011;8368;48.772;8.754;2023-11-19T12:13:14;0.57;;;0.50;;
16510;SDS011;8368;48.772;8.754;2023-11-19T12:18:23;1.10;;;0.37;;
16510;SDS011;8368;48.772;8.754;2023-11-19T12:20:49;0.50;;;0.50;;
16510;SDS011;8368;48.772;8.754;2023-11-19T12:23:15;0.53;;;0.43;;
16510;SDS011;8368;48.772;8.754;2023-11-19T12:25:41;0.50;;;0.50;;
16510;SDS011;8368;48.772;8.754;2023-11-19T12:28:11;1.13;;;0.67;;
16510;SDS011;8368;48.772;8.754;2023-11-19T12:30:38;0.40;;;0.40;;
16510;SDS011;8368;48.772;8.754;2023-11-19T12:33:07;0.50;;;0.50;;
16510;SDS011;8368;48.772;8.754;2023-11-19T12:35:38;1.07;;;0.57;;
16510;SDS011;8368;48.772;8.754;2023-11-19T12:38:07;1.00;;;0.60;;
16510;SDS011;8368;48.772;8.754;2023-11-19T12:40:42;0.50;;;0.50;;
16510;SDS011;8368;48.772;8.754;2023-11-19T12:43:08;0.37;;;0.37;;
16510;SDS011;8368;48.772;8.754;2023-11-19T12:45:34;0.83;;;0.30;;
16510;SDS011;8368;48.772;8.754;2023-11-19T12:48:04;1.83;;;0.60;;
16510;SDS011;8368;48.772;8.754;2023-11-19T12:50:30;0.50;;;0.50;;
16510;SDS011;8368;48.772;8.754;2023-11-19T12:53:18;1.50;;;0.70;;
16510;SDS011;8368;48.772;8.754;2023-11-19T12:55:44;0.60;;;0.60;;
16510;SDS011;8368;48.772;8.754;2023-11-19T12:58:09;0.40;;;0.40;;
16510;SDS011;8368;48.772;8.754;2023-11-19T13:00:35;0.50;;;0.50;;
16510;SDS011;8368;48.772;8.754;2023-11-19T13:03:00;0.37;;;0.37;;
16510;SDS011;8368;48.772;8.754;2023-11-19T13:08:02;0.40;;;0.40;;
16510;SDS011;8368;48.772;8.754;2023-11-19T13:10:53;0.50;;;0.50;;
16510;SDS011;8368;48.772;8.754;2023-11-19T13:13:18;0.43;;;0.43;;
16510;SDS011;8368;48.772;8.754;2023-11-19T13:15:44;0.87;;;0.50;;
16510;SDS011;8368;48.772;8.754;2023-11-19T13:18:10;2.73;;;0.57;;
16510;SDS011;8368;48.772;8.754;2023-11-19T13:20:36;0.50;;;0.50;;
16510;SDS011;8368;48.772;8.754;2023-11-19T13:23:02;1.60;;;0.60;;
16510;SDS011;8368;48.772;8.754;2023-11-19T13:25:29;0.60;;;0.60;;
16510;SDS011;8368;48.772;8.754;2023-11-19T13:27:56;0.83;;;0.60;;
16510;SDS011;8368;48.772;8.754;2023-11-19T13:30:22;1.27;;;0.70;;
16510;SDS011;8368;48.772;8.754;2023-11-19T13:32:48;0.50;;;0.50;;
16510;SDS011;8368;48.772;8.754;2023-11-19T13:35:15;0.47;;;0.47;;
16510;SDS011;8368;48.772;8.754;2023-11-19T13:37:42;0.80;;;0.60;;
16510;SDS011;8368;48.772;8.754;2023-11-19T13:40:08;0.50;;;0.47;;
16510;SDS011;8368;48.772;8.754;2023-11-19T13:42:42;3.00;;;0.60;;
16510;SDS011;8368;48.772;8.754;2023-11-19T13:45:11;1.37;;;1.27;;
16510;SDS011;8368;48.772;8.754;2023-11-19T13:47:38;2.70;;;0.77;;
16510;SDS011;8368;48.772;8.754;2023-11-19T13:50:06;0.53;;;0.50;;
16510;SDS011;8368;48.772;8.754;2023-11-19T13:52:34;0.40;;;0.40;;
16510;SDS011;8368;48.772;8.754;2023-11-19T13:54:59;0.60;;;0.60;;
16510;SDS011;8368;48.772;8.754;2023-11-19T13:57:25;0.50;;;0.50;;
16510;SDS011;8368;48.772;8.754;2023-11-19T13:59:51;0.53;;;0.53;;
16510;SDS011;8368;48.772;8.754;2023-11-19T14:02:16;0.77;;;0.77;;
16510;SDS011;8368;48.772;8.754;2023-11-19T14:04:42;0.50;;;0.50;;
16510;SDS011;8368;48.772;8.754;2023-11-19T14:07:07;0.97;;;0.47;;
16510;SDS011;8368;48.772;8.754;2023-11-19T14:09:33;1.37;;;0.63;;
16510;SDS011;8368;48.772;8.754;2023-11-19T14:11:58;0.80;;;0.67;;
16510;SDS011;8368;48.772;8.754;2023-11-19T14:14:24;0.83;;;0.70;;
16510;SDS011;8368;48.772;8.754;2023-11-19T14:16:49;2.00;;;0.70;;
16510;SDS011;8368;48.772;8.754;2023-11-19T14:19:15;0.67;;;0.50;;
16510;SDS011;8368;48.772;8.754;2023-11-19T14:21:40;1.60;;;0.67;;
16510;SDS011;8368;48.772;8.754;2023-11-19T14:24:06;3.30;;;0.80;;
16510;SDS011;8368;48.772;8.754;2023-11-19T14:26:32;0.40;;;0.40;;
16510;SDS011;8368;48.772;8.754;2023-11-19T14:28:57;2.07;;;0.60;;
16510;SDS011;8368;48.772;8.754;2023-11-19T14:31:23;0.60;;;0.60;;
16510;SDS011;8368;48.772;8.754;2023-11-19T14:33:52;0.70;;;0.70;;
16510;SDS011;8368;48.772;8.754;2023-11-19T14:36:18;0.93;;;0.40;;
16510;SDS011;8368;48.772;8.754;2023-11-19T14:38:44;1.27;;;0.67;;
16510;SDS011;8368;48.772;8.754;2023-11-19T14:41:09;0.83;;;0.57;;
16510;SDS011;8368;48.772;8.754;2023-11-19T14:43:34;1.87;;;0.63;;
16510;SDS011;8368;48.772;8.754;2023-11-19T14:46:00;1.03;;;0.50;;
16510;SDS011;8368;48.772;8.754;2023-11-19T14:48:28;0.90;;;0.90;;
16510;SDS011;8368;48.772;8.754;2023-11-19T14:50:53;1.70;;;0.50;;
16510;SDS011;8368;48.772;8.754;2023-11-19T14:53:19;0.60;;;0.60;;
16510;SDS011;8368;48.772;8.754;2023-11-19T14:55:45;1.03;;;0.40;;
16510;SDS011;8368;48.772;8.754;2023-11-19T14:58:10;1.93;;;0.73;;
16510;SDS011;8368;48.772;8.754;2023-11-19T15:00:36;0.50;;;0.50;;
16510;SDS011;8368;48.772;8.754;2023-11-19T15:03:01;0.43;;;0.30;;
16510;SDS011;8368;48.772;8.754;2023-11-19T15:05:27;0.53;;;0.50;;
16510;SDS011;8368;48.772;8.754;2023-11-19T15:07:54;0.97;;;0.50;;
16510;SDS011;8368;48.772;8.754;2023-11-19T15:10:20;0.63;;;0.57;;
16510;SDS011;8368;48.772;8.754;2023-11-19T15:12:46;0.53;;;0.53;;
16510;SDS011;8368;48.772;8.754;2023-11-19T15:15:11;0.50;;;0.50;;
16510;SDS011;8368;48.772;8.754;2023-11-19T15:17:41;0.50;;;0.50;;